sensor_id;sensor_type;location;lat;lon;timestamp;temperature;humidity
65408;DHT22;52017;51.230;-2.322;2022-12-19T00:02:31;12.00;94.30
65408;DHT22;52017;51.230;-2.322;2022-12-19T00:06:14;12.00;94.30
65408;DHT22;52017;51.230;-2.322;2022-12-19T00:09:57;12.00;94.30
65408;DHT22;52017;51.230;-2.322;2022-12-19T00:13:40;12.10;94.30
65408;DHT22;52017;51.230;-2.322;2022-12-19T00:17:22;12.10;94.30
65408;DHT22;52017;51.230;-2.322;2022-12-19T00:21:05;12.20;94.40
65408;DHT22;52017;51.230;-2.322;2022-12-19T00:24:48;12.20;94.30
65408;DHT22;52017;51.230;-2.322;2022-12-19T00:28:31;12.20;94.40
65408;DHT22;52017;51.230;-2.322;2022-12-19T00:32:14;12.20;94.50
65408;DHT22;52017;51.230;-2.322;2022-12-19T00:36:05;12.30;94.40
65408;DHT22;52017;51.230;-2.322;2022-12-19T00:39:48;12.30;94.40
65408;DHT22;52017;51.230;-2.322;2022-12-19T00:43:31;12.30;94.40
65408;DHT22;52017;51.230;-2.322;2022-12-19T00:47:15;12.40;94.40
65408;DHT22;52017;51.230;-2.322;2022-12-19T00:51:04;12.40;94.40
65408;DHT22;52017;51.230;-2.322;2022-12-19T00:54:48;12.40;94.40
65408;DHT22;52017;51.230;-2.322;2022-12-19T00:58:30;12.50;94.50
65408;DHT22;52017;51.230;-2.322;2022-12-19T01:02:16;12.50;94.40
65408;DHT22;52017;51.230;-2.322;2022-12-19T01:06:01;12.50;94.40
65408;DHT22;52017;51.230;-2.322;2022-12-19T01:09:46;12.50;94.40
65408;DHT22;52017;51.230;-2.322;2022-12-19T01:13:31;12.50;94.40
65408;DHT22;52017;51.230;-2.322;2022-12-19T01:17:23;12.50;94.40
65408;DHT22;52017;51.230;-2.322;2022-12-19T01:21:09;12.50;94.40
65408;DHT22;52017;51.230;-2.322;2022-12-19T01:24:54;12.50;94.40
65408;DHT22;52017;51.230;-2.322;2022-12-19T01:28:40;12.50;94.40
65408;DHT22;52017;51.230;-2.322;2022-12-19T01:32:23;12.50;94.40
65408;DHT22;52017;51.230;-2.322;2022-12-19T01:36:06;12.50;94.40
65408;DHT22;52017;51.230;-2.322;2022-12-19T01:39:48;12.50;94.50
65408;DHT22;52017;51.230;-2.322;2022-12-19T01:43:54;12.50;94.40
65408;DHT22;52017;51.230;-2.322;2022-12-19T01:48:41;12.50;94.70
65408;DHT22;52017;51.230;-2.322;2022-12-19T01:52:05;12.50;94.60
65408;DHT22;52017;51.230;-2.322;2022-12-19T01:55:48;12.60;94.50
65408;DHT22;52017;51.230;-2.322;2022-12-19T01:59:38;12.60;94.40
65408;DHT22;52017;51.230;-2.322;2022-12-19T02:03:27;12.60;94.50
65408;DHT22;52017;51.230;-2.322;2022-12-19T02:07:13;12.60;94.50
65408;DHT22;52017;51.230;-2.322;2022-12-19T02:10:58;12.60;94.60
65408;DHT22;52017;51.230;-2.322;2022-12-19T02:14:40;12.60;94.60
65408;DHT22;52017;51.230;-2.322;2022-12-19T02:23:39;12.60;94.70
65408;DHT22;52017;51.230;-2.322;2022-12-19T02:26:59;12.60;94.80
65408;DHT22;52017;51.230;-2.322;2022-12-19T02:34:36;12.60;94.80
65408;DHT22;52017;51.230;-2.322;2022-12-19T02:38:54;12.70;94.70
65408;DHT22;52017;51.230;-2.322;2022-12-19T02:42:41;12.70;94.80
65408;DHT22;52017;51.230;-2.322;2022-12-19T02:46:32;12.80;94.80
65408;DHT22;52017;51.230;-2.322;2022-12-19T02:50:14;12.80;94.70
65408;DHT22;52017;51.230;-2.322;2022-12-19T02:53:57;12.80;94.70
65408;DHT22;52017;51.230;-2.322;2022-12-19T03:01:41;12.90;94.80
65408;DHT22;52017;51.230;-2.322;2022-12-19T03:14:18;12.90;94.70
65408;DHT22;52017;51.230;-2.322;2022-12-19T03:17:41;12.90;94.70
65408;DHT22;52017;51.230;-2.322;2022-12-19T03:21:37;12.90;94.60
65408;DHT22;52017;51.230;-2.322;2022-12-19T03:25:21;12.90;94.80
65408;DHT22;52017;51.230;-2.322;2022-12-19T03:29:12;12.90;94.50
65408;DHT22;52017;51.230;-2.322;2022-12-19T03:32:56;12.80;94.60
65408;DHT22;52017;51.230;-2.322;2022-12-19T03:36:44;12.90;94.60
65408;DHT22;52017;51.230;-2.322;2022-12-19T03:40:27;12.80;94.70
65408;DHT22;52017;51.230;-2.322;2022-12-19T03:44:15;12.80;94.60
65408;DHT22;52017;51.230;-2.322;2022-12-19T03:48:09;12.80;94.60
65408;DHT22;52017;51.230;-2.322;2022-12-19T03:55:50;12.80;94.60
65408;DHT22;52017;51.230;-2.322;2022-12-19T03:59:45;12.80;94.60
65408;DHT22;52017;51.230;-2.322;2022-12-19T04:03:34;12.80;94.60
65408;DHT22;52017;51.230;-2.322;2022-12-19T04:07:17;12.80;94.60
65408;DHT22;52017;51.230;-2.322;2022-12-19T04:11:04;12.80;94.60
65408;DHT22;52017;51.230;-2.322;2022-12-19T04:14:51;12.80;94.60
65408;DHT22;52017;51.230;-2.322;2022-12-19T04:18:34;12.70;94.60
65408;DHT22;52017;51.230;-2.322;2022-12-19T04:22:57;12.80;94.60
65408;DHT22;52017;51.230;-2.322;2022-12-19T04:26:43;12.80;94.70
65408;DHT22;52017;51.230;-2.322;2022-12-19T04:30:26;12.70;94.60
65408;DHT22;52017;51.230;-2.322;2022-12-19T04:34:09;12.70;94.60
65408;DHT22;52017;51.230;-2.322;2022-12-19T04:37:56;12.70;94.70
65408;DHT22;52017;51.230;-2.322;2022-12-19T04:41:45;12.70;94.70
65408;DHT22;52017;51.230;-2.322;2022-12-19T04:45:28;12.70;94.70
65408;DHT22;52017;51.230;-2.322;2022-12-19T04:49:17;12.70;94.70
65408;DHT22;52017;51.230;-2.322;2022-12-19T04:53:01;12.70;94.70
65408;DHT22;52017;51.230;-2.322;2022-12-19T04:56:43;12.70;94.70
65408;DHT22;52017;51.230;-2.322;2022-12-19T05:00:26;12.70;94.70
65408;DHT22;52017;51.230;-2.322;2022-12-19T05:04:11;12.70;94.80
65408;DHT22;52017;51.230;-2.322;2022-12-19T05:07:57;12.80;94.80
65408;DHT22;52017;51.230;-2.322;2022-12-19T05:11:41;12.80;94.80
65408;DHT22;52017;51.230;-2.322;2022-12-19T05:15:24;12.80;94.70
65408;DHT22;52017;51.230;-2.322;2022-12-19T05:19:06;12.80;94.80
65408;DHT22;52017;51.230;-2.322;2022-12-19T05:22:48;12.90;94.80
65408;DHT22;52017;51.230;-2.322;2022-12-19T05:26:31;12.90;94.80
65408;DHT22;52017;51.230;-2.322;2022-12-19T05:30:18;12.90;94.80
65408;DHT22;52017;51.230;-2.322;2022-12-19T05:34:00;12.90;94.80
65408;DHT22;52017;51.230;-2.322;2022-12-19T05:37:43;12.90;94.80
65408;DHT22;52017;51.230;-2.322;2022-12-19T05:41:25;12.90;94.80
65408;DHT22;52017;51.230;-2.322;2022-12-19T05:45:08;13.00;94.70
65408;DHT22;52017;51.230;-2.322;2022-12-19T05:48:50;13.00;94.70
65408;DHT22;52017;51.230;-2.322;2022-12-19T05:52:40;13.00;94.80
65408;DHT22;52017;51.230;-2.322;2022-12-19T05:56:24;13.00;94.80
65408;DHT22;52017;51.230;-2.322;2022-12-19T06:00:07;13.00;94.70
65408;DHT22;52017;51.230;-2.322;2022-12-19T06:03:50;13.00;94.70
65408;DHT22;52017;51.230;-2.322;2022-12-19T06:07:33;13.00;94.80
65408;DHT22;52017;51.230;-2.322;2022-12-19T06:11:21;13.00;94.80
65408;DHT22;52017;51.230;-2.322;2022-12-19T06:15:30;13.00;94.70
65408;DHT22;52017;51.230;-2.322;2022-12-19T06:19:13;13.00;94.70
65408;DHT22;52017;51.230;-2.322;2022-12-19T06:22:58;13.00;94.70
65408;DHT22;52017;51.230;-2.322;2022-12-19T06:26:40;13.00;94.70
65408;DHT22;52017;51.230;-2.322;2022-12-19T06:30:22;13.00;94.70
65408;DHT22;52017;51.230;-2.322;2022-12-19T06:34:07;12.90;94.70
65408;DHT22;52017;51.230;-2.322;2022-12-19T06:37:50;13.00;94.70
65408;DHT22;52017;51.230;-2.322;2022-12-19T06:41:39;13.00;94.70
65408;DHT22;52017;51.230;-2.322;2022-12-19T06:45:41;13.00;94.70
65408;DHT22;52017;51.230;-2.322;2022-12-19T06:49:29;13.00;94.70
65408;DHT22;52017;51.230;-2.322;2022-12-19T06:53:12;13.00;94.70
65408;DHT22;52017;51.230;-2.322;2022-12-19T06:56:55;13.00;94.60
65408;DHT22;52017;51.230;-2.322;2022-12-19T07:00:39;13.00;94.70
65408;DHT22;52017;51.230;-2.322;2022-12-19T07:04:35;13.00;94.70
65408;DHT22;52017;51.230;-2.322;2022-12-19T07:08:21;13.00;94.70
65408;DHT22;52017;51.230;-2.322;2022-12-19T07:12:03;13.00;94.70
65408;DHT22;52017;51.230;-2.322;2022-12-19T07:15:50;13.00;94.70
65408;DHT22;52017;51.230;-2.322;2022-12-19T07:19:34;12.90;94.60
65408;DHT22;52017;51.230;-2.322;2022-12-19T07:23:19;12.90;94.70
65408;DHT22;52017;51.230;-2.322;2022-12-19T07:27:05;12.90;94.70
65408;DHT22;52017;51.230;-2.322;2022-12-19T07:30:51;12.90;94.70
65408;DHT22;52017;51.230;-2.322;2022-12-19T07:34:33;12.90;94.70
65408;DHT22;52017;51.230;-2.322;2022-12-19T07:38:18;12.90;94.60
65408;DHT22;52017;51.230;-2.322;2022-12-19T07:42:00;12.90;94.60
65408;DHT22;52017;51.230;-2.322;2022-12-19T07:45:44;12.90;94.60
65408;DHT22;52017;51.230;-2.322;2022-12-19T07:49:26;12.90;94.60
65408;DHT22;52017;51.230;-2.322;2022-12-19T07:53:09;12.90;94.60
65408;DHT22;52017;51.230;-2.322;2022-12-19T07:56:51;12.80;94.60
65408;DHT22;52017;51.230;-2.322;2022-12-19T08:00:37;12.90;94.60
65408;DHT22;52017;51.230;-2.322;2022-12-19T08:04:24;12.80;94.60
65408;DHT22;52017;51.230;-2.322;2022-12-19T08:08:06;12.80;94.70
65408;DHT22;52017;51.230;-2.322;2022-12-19T08:11:49;12.90;94.70
65408;DHT22;52017;51.230;-2.322;2022-12-19T08:15:35;12.90;94.70
65408;DHT22;52017;51.230;-2.322;2022-12-19T08:19:19;12.90;94.70
65408;DHT22;52017;51.230;-2.322;2022-12-19T08:23:07;12.90;94.70
65408;DHT22;52017;51.230;-2.322;2022-12-19T08:26:53;12.90;94.60
65408;DHT22;52017;51.230;-2.322;2022-12-19T08:30:40;12.90;94.60
65408;DHT22;52017;51.230;-2.322;2022-12-19T08:34:48;12.90;94.60
65408;DHT22;52017;51.230;-2.322;2022-12-19T08:38:30;12.90;94.60
65408;DHT22;52017;51.230;-2.322;2022-12-19T08:42:15;12.90;94.50
65408;DHT22;52017;51.230;-2.322;2022-12-19T08:45:59;12.90;94.50
65408;DHT22;52017;51.230;-2.322;2022-12-19T08:49:45;12.90;94.50
65408;DHT22;52017;51.230;-2.322;2022-12-19T08:53:32;12.90;94.50
65408;DHT22;52017;51.230;-2.322;2022-12-19T08:57:19;12.90;94.40
65408;DHT22;52017;51.230;-2.322;2022-12-19T09:01:05;12.80;94.50
65408;DHT22;52017;51.230;-2.322;2022-12-19T09:04:52;12.80;94.50
65408;DHT22;52017;51.230;-2.322;2022-12-19T09:08:57;12.80;94.50
65408;DHT22;52017;51.230;-2.322;2022-12-19T09:12:45;12.80;94.50
65408;DHT22;52017;51.230;-2.322;2022-12-19T09:16:36;12.80;94.50
65408;DHT22;52017;51.230;-2.322;2022-12-19T09:20:20;12.80;94.40
65408;DHT22;52017;51.230;-2.322;2022-12-19T09:24:05;12.80;94.40
65408;DHT22;52017;51.230;-2.322;2022-12-19T09:27:49;12.80;94.40
65408;DHT22;52017;51.230;-2.322;2022-12-19T09:31:55;12.70;94.50
65408;DHT22;52017;51.230;-2.322;2022-12-19T09:35:38;12.80;94.50
65408;DHT22;52017;51.230;-2.322;2022-12-19T09:39:20;12.70;94.50
65408;DHT22;52017;51.230;-2.322;2022-12-19T09:47:12;12.80;94.60
65408;DHT22;52017;51.230;-2.322;2022-12-19T09:51:15;12.80;94.60
65408;DHT22;52017;51.230;-2.322;2022-12-19T09:59:03;12.70;94.60
65408;DHT22;52017;51.230;-2.322;2022-12-19T10:06:36;12.80;94.60
65408;DHT22;52017;51.230;-2.322;2022-12-19T10:11:07;12.80;94.60
65408;DHT22;52017;51.230;-2.322;2022-12-19T10:19:09;12.80;94.70
65408;DHT22;52017;51.230;-2.322;2022-12-19T10:26:51;12.80;94.60
65408;DHT22;52017;51.230;-2.322;2022-12-19T10:30:43;12.90;94.60
65408;DHT22;52017;51.230;-2.322;2022-12-19T10:34:37;12.90;94.60
65408;DHT22;52017;51.230;-2.322;2022-12-19T10:46:43;12.90;94.60
65408;DHT22;52017;51.230;-2.322;2022-12-19T10:50:33;12.90;94.60
65408;DHT22;52017;51.230;-2.322;2022-12-19T10:54:20;12.90;94.50
65408;DHT22;52017;51.230;-2.322;2022-12-19T10:58:21;13.00;94.50
65408;DHT22;52017;51.230;-2.322;2022-12-19T11:02:16;12.90;94.60
65408;DHT22;52017;51.230;-2.322;2022-12-19T11:10:38;12.90;94.70
65408;DHT22;52017;51.230;-2.322;2022-12-19T11:19:39;12.90;94.60
65408;DHT22;52017;51.230;-2.322;2022-12-19T11:23:53;13.00;94.60
65408;DHT22;52017;51.230;-2.322;2022-12-19T11:28:03;13.00;94.50
65408;DHT22;52017;51.230;-2.322;2022-12-19T11:32:34;13.00;94.50
65408;DHT22;52017;51.230;-2.322;2022-12-19T11:36:40;13.00;94.60
65408;DHT22;52017;51.230;-2.322;2022-12-19T11:40:44;13.00;94.60
65408;DHT22;52017;51.230;-2.322;2022-12-19T11:44:42;13.00;94.60
65408;DHT22;52017;51.230;-2.322;2022-12-19T11:48:35;13.00;94.50
65408;DHT22;52017;51.230;-2.322;2022-12-19T11:56:44;13.00;94.50
65408;DHT22;52017;51.230;-2.322;2022-12-19T12:00:27;13.00;94.50
65408;DHT22;52017;51.230;-2.322;2022-12-19T12:04:22;13.00;94.50
65408;DHT22;52017;51.230;-2.322;2022-12-19T12:21:33;13.00;94.40
65408;DHT22;52017;51.230;-2.322;2022-12-19T12:30:16;13.00;94.50
65408;DHT22;52017;51.230;-2.322;2022-12-19T12:39:19;13.00;94.60
65408;DHT22;52017;51.230;-2.322;2022-12-19T12:43:45;13.00;94.60
65408;DHT22;52017;51.230;-2.322;2022-12-19T12:47:35;13.00;94.60
65408;DHT22;52017;51.230;-2.322;2022-12-19T12:51:20;13.00;94.50
65408;DHT22;52017;51.230;-2.322;2022-12-19T12:55:36;13.00;94.50
65408;DHT22;52017;51.230;-2.322;2022-12-19T12:59:26;13.00;94.70
65408;DHT22;52017;51.230;-2.322;2022-12-19T13:03:18;13.00;94.50
65408;DHT22;52017;51.230;-2.322;2022-12-19T13:07:42;13.00;94.50
65408;DHT22;52017;51.230;-2.322;2022-12-19T13:11:49;13.00;94.70
65408;DHT22;52017;51.230;-2.322;2022-12-19T13:16:39;13.00;94.60
65408;DHT22;52017;51.230;-2.322;2022-12-19T13:24:12;13.00;94.60
65408;DHT22;52017;51.230;-2.322;2022-12-19T13:32:12;13.00;94.60
65408;DHT22;52017;51.230;-2.322;2022-12-19T13:35:56;13.10;94.70
65408;DHT22;52017;51.230;-2.322;2022-12-19T13:43:48;13.10;94.60
65408;DHT22;52017;51.230;-2.322;2022-12-19T13:47:34;13.10;94.60
65408;DHT22;52017;51.230;-2.322;2022-12-19T13:51:20;13.10;94.60
65408;DHT22;52017;51.230;-2.322;2022-12-19T13:55:02;13.10;94.50
65408;DHT22;52017;51.230;-2.322;2022-12-19T13:58:53;13.10;94.50
65408;DHT22;52017;51.230;-2.322;2022-12-19T14:02:53;13.10;94.60
65408;DHT22;52017;51.230;-2.322;2022-12-19T14:06:46;13.10;94.60
65408;DHT22;52017;51.230;-2.322;2022-12-19T14:10:38;13.10;94.60
65408;DHT22;52017;51.230;-2.322;2022-12-19T14:14:51;13.10;94.60
65408;DHT22;52017;51.230;-2.322;2022-12-19T14:18:59;13.10;94.60
65408;DHT22;52017;51.230;-2.322;2022-12-19T14:22:41;13.10;94.50
65408;DHT22;52017;51.230;-2.322;2022-12-19T14:26:29;13.10;94.60
65408;DHT22;52017;51.230;-2.322;2022-12-19T14:30:34;13.10;94.60
65408;DHT22;52017;51.230;-2.322;2022-12-19T14:34:24;13.10;94.50
65408;DHT22;52017;51.230;-2.322;2022-12-19T14:38:30;13.10;94.60
65408;DHT22;52017;51.230;-2.322;2022-12-19T14:42:37;13.10;94.60
65408;DHT22;52017;51.230;-2.322;2022-12-19T14:47:09;13.10;94.60
65408;DHT22;52017;51.230;-2.322;2022-12-19T14:51:14;13.10;94.70
65408;DHT22;52017;51.230;-2.322;2022-12-19T14:55:27;13.10;94.60
65408;DHT22;52017;51.230;-2.322;2022-12-19T14:59:35;13.20;94.70
65408;DHT22;52017;51.230;-2.322;2022-12-19T15:03:30;13.20;94.70
65408;DHT22;52017;51.230;-2.322;2022-12-19T15:07:20;13.30;94.80
65408;DHT22;52017;51.230;-2.322;2022-12-19T15:11:06;13.30;94.80
65408;DHT22;52017;51.230;-2.322;2022-12-19T15:19:38;13.20;94.80
65408;DHT22;52017;51.230;-2.322;2022-12-19T15:23:20;13.30;94.70
65408;DHT22;52017;51.230;-2.322;2022-12-19T15:27:19;13.30;94.60
65408;DHT22;52017;51.230;-2.322;2022-12-19T15:31:09;13.30;94.60
65408;DHT22;52017;51.230;-2.322;2022-12-19T15:34:54;13.30;94.70
65408;DHT22;52017;51.230;-2.322;2022-12-19T15:38:37;13.30;94.60
65408;DHT22;52017;51.230;-2.322;2022-12-19T15:42:22;13.30;94.60
65408;DHT22;52017;51.230;-2.322;2022-12-19T15:46:10;13.30;94.70
65408;DHT22;52017;51.230;-2.322;2022-12-19T15:49:53;13.30;94.70
65408;DHT22;52017;51.230;-2.322;2022-12-19T15:53:35;13.30;94.60
65408;DHT22;52017;51.230;-2.322;2022-12-19T15:57:29;13.30;94.60
65408;DHT22;52017;51.230;-2.322;2022-12-19T16:01:14;13.30;94.70
65408;DHT22;52017;51.230;-2.322;2022-12-19T16:04:56;13.30;94.70
65408;DHT22;52017;51.230;-2.322;2022-12-19T16:08:46;13.30;94.70
65408;DHT22;52017;51.230;-2.322;2022-12-19T16:12:37;13.30;94.70
65408;DHT22;52017;51.230;-2.322;2022-12-19T16:16:29;13.20;94.80
65408;DHT22;52017;51.230;-2.322;2022-12-19T16:20:22;13.30;94.80
65408;DHT22;52017;51.230;-2.322;2022-12-19T16:24:11;13.30;94.80
65408;DHT22;52017;51.230;-2.322;2022-12-19T16:27:57;13.30;94.80
65408;DHT22;52017;51.230;-2.322;2022-12-19T16:31:40;13.30;94.80
65408;DHT22;52017;51.230;-2.322;2022-12-19T16:35:25;13.30;94.80
65408;DHT22;52017;51.230;-2.322;2022-12-19T16:39:36;13.30;94.80
65408;DHT22;52017;51.230;-2.322;2022-12-19T16:43:32;13.30;94.80
65408;DHT22;52017;51.230;-2.322;2022-12-19T16:47:16;13.30;94.90
65408;DHT22;52017;51.230;-2.322;2022-12-19T16:51:08;13.30;94.80
65408;DHT22;52017;51.230;-2.322;2022-12-19T16:54:57;13.40;94.80
65408;DHT22;52017;51.230;-2.322;2022-12-19T16:58:40;13.30;94.80
65408;DHT22;52017;51.230;-2.322;2022-12-19T17:02:48;13.40;94.80
65408;DHT22;52017;51.230;-2.322;2022-12-19T17:06:31;13.30;94.90
65408;DHT22;52017;51.230;-2.322;2022-12-19T17:10:19;13.40;94.80
65408;DHT22;52017;51.230;-2.322;2022-12-19T17:14:22;13.40;94.80
65408;DHT22;52017;51.230;-2.322;2022-12-19T17:18:19;13.30;94.90
65408;DHT22;52017;51.230;-2.322;2022-12-19T17:22:14;13.40;94.90
65408;DHT22;52017;51.230;-2.322;2022-12-19T17:26:00;13.40;94.90
65408;DHT22;52017;51.230;-2.322;2022-12-19T17:29:50;13.40;94.80
65408;DHT22;52017;51.230;-2.322;2022-12-19T17:33:35;13.40;94.90
65408;DHT22;52017;51.230;-2.322;2022-12-19T17:37:36;13.40;94.80
65408;DHT22;52017;51.230;-2.322;2022-12-19T17:41:18;13.40;94.80
65408;DHT22;52017;51.230;-2.322;2022-12-19T17:45:05;13.30;94.80
65408;DHT22;52017;51.230;-2.322;2022-12-19T17:48:53;13.30;94.80
65408;DHT22;52017;51.230;-2.322;2022-12-19T17:52:35;13.30;94.80
65408;DHT22;52017;51.230;-2.322;2022-12-19T17:56:18;13.30;94.80
65408;DHT22;52017;51.230;-2.322;2022-12-19T18:00:02;13.30;94.80
65408;DHT22;52017;51.230;-2.322;2022-12-19T18:03:48;13.30;94.90
65408;DHT22;52017;51.230;-2.322;2022-12-19T18:07:31;13.30;94.80
65408;DHT22;52017;51.230;-2.322;2022-12-19T18:11:24;13.40;94.90
65408;DHT22;52017;51.230;-2.322;2022-12-19T18:15:23;13.40;95.00
65408;DHT22;52017;51.230;-2.322;2022-12-19T18:19:31;13.40;95.00
65408;DHT22;52017;51.230;-2.322;2022-12-19T18:23:29;13.30;95.00
65408;DHT22;52017;51.230;-2.322;2022-12-19T18:27:12;13.40;94.90
65408;DHT22;52017;51.230;-2.322;2022-12-19T18:35:14;13.40;94.90
65408;DHT22;52017;51.230;-2.322;2022-12-19T18:38:57;13.40;95.00
65408;DHT22;52017;51.230;-2.322;2022-12-19T18:42:40;13.40;94.90
65408;DHT22;52017;51.230;-2.322;2022-12-19T18:46:28;13.40;95.00
65408;DHT22;52017;51.230;-2.322;2022-12-19T18:50:21;13.40;95.00
65408;DHT22;52017;51.230;-2.322;2022-12-19T18:54:20;13.40;95.00
65408;DHT22;52017;51.230;-2.322;2022-12-19T18:58:49;13.50;95.00
65408;DHT22;52017;51.230;-2.322;2022-12-19T19:06:21;13.50;95.00
65408;DHT22;52017;51.230;-2.322;2022-12-19T19:11:13;13.50;95.00
65408;DHT22;52017;51.230;-2.322;2022-12-19T19:15:09;13.50;95.00
65408;DHT22;52017;51.230;-2.322;2022-12-19T19:18:58;13.50;95.00
65408;DHT22;52017;51.230;-2.322;2022-12-19T19:22:58;13.50;95.00
65408;DHT22;52017;51.230;-2.322;2022-12-19T19:31:43;13.50;95.10
65408;DHT22;52017;51.230;-2.322;2022-12-19T19:35:41;13.50;95.00
65408;DHT22;52017;51.230;-2.322;2022-12-19T19:39:52;13.50;95.00
65408;DHT22;52017;51.230;-2.322;2022-12-19T19:44:31;13.50;95.00
65408;DHT22;52017;51.230;-2.322;2022-12-19T19:48:23;13.50;94.90
65408;DHT22;52017;51.230;-2.322;2022-12-19T19:52:06;13.50;95.00
65408;DHT22;52017;51.230;-2.322;2022-12-19T19:55:55;13.50;95.00
65408;DHT22;52017;51.230;-2.322;2022-12-19T19:59:40;13.50;95.00
65408;DHT22;52017;51.230;-2.322;2022-12-19T20:03:31;13.50;95.00
65408;DHT22;52017;51.230;-2.322;2022-12-19T20:07:14;13.50;95.00
65408;DHT22;52017;51.230;-2.322;2022-12-19T20:11:07;13.50;95.00
65408;DHT22;52017;51.230;-2.322;2022-12-19T20:14:51;13.50;95.00
65408;DHT22;52017;51.230;-2.322;2022-12-19T20:18:40;13.50;95.00
65408;DHT22;52017;51.230;-2.322;2022-12-19T20:22:23;13.50;95.00
65408;DHT22;52017;51.230;-2.322;2022-12-19T20:26:30;13.50;95.00
65408;DHT22;52017;51.230;-2.322;2022-12-19T20:30:18;13.50;95.00
65408;DHT22;52017;51.230;-2.322;2022-12-19T20:34:02;13.50;95.00
65408;DHT22;52017;51.230;-2.322;2022-12-19T20:37:51;13.50;95.00
65408;DHT22;52017;51.230;-2.322;2022-12-19T20:41:41;13.50;95.00
65408;DHT22;52017;51.230;-2.322;2022-12-19T20:45:42;13.50;95.00
65408;DHT22;52017;51.230;-2.322;2022-12-19T20:49:56;13.50;95.00
65408;DHT22;52017;51.230;-2.322;2022-12-19T20:53:41;13.50;95.10
65408;DHT22;52017;51.230;-2.322;2022-12-19T20:58:05;13.50;95.00
65408;DHT22;52017;51.230;-2.322;2022-12-19T21:01:51;13.50;95.10
65408;DHT22;52017;51.230;-2.322;2022-12-19T21:05:36;13.50;94.90
65408;DHT22;52017;51.230;-2.322;2022-12-19T21:15:07;13.50;95.00
65408;DHT22;52017;51.230;-2.322;2022-12-19T21:19:00;13.50;94.90
65408;DHT22;52017;51.230;-2.322;2022-12-19T21:23:07;13.50;95.00
65408;DHT22;52017;51.230;-2.322;2022-12-19T21:26:55;13.50;95.00
65408;DHT22;52017;51.230;-2.322;2022-12-19T21:30:41;13.50;94.90
65408;DHT22;52017;51.230;-2.322;2022-12-19T21:34:26;13.40;95.00
65408;DHT22;52017;51.230;-2.322;2022-12-19T21:38:27;13.40;95.00
65408;DHT22;52017;51.230;-2.322;2022-12-19T21:42:14;13.40;95.00
65408;DHT22;52017;51.230;-2.322;2022-12-19T21:47:12;13.40;95.00
65408;DHT22;52017;51.230;-2.322;2022-12-19T21:51:35;13.40;95.00
65408;DHT22;52017;51.230;-2.322;2022-12-19T21:55:39;13.40;95.00
65408;DHT22;52017;51.230;-2.322;2022-12-19T21:59:54;13.40;95.00
65408;DHT22;52017;51.230;-2.322;2022-12-19T22:03:38;13.40;95.00
65408;DHT22;52017;51.230;-2.322;2022-12-19T22:08:02;13.30;94.90
65408;DHT22;52017;51.230;-2.322;2022-12-19T22:11:55;13.30;94.90
65408;DHT22;52017;51.230;-2.322;2022-12-19T22:15:51;13.30;94.90
65408;DHT22;52017;51.230;-2.322;2022-12-19T22:19:55;13.30;94.90
65408;DHT22;52017;51.230;-2.322;2022-12-19T22:24:04;13.30;95.10
65408;DHT22;52017;51.230;-2.322;2022-12-19T22:28:00;13.20;94.90
65408;DHT22;52017;51.230;-2.322;2022-12-19T22:31:43;13.20;94.90
65408;DHT22;52017;51.230;-2.322;2022-12-19T22:35:26;13.20;94.90
65408;DHT22;52017;51.230;-2.322;2022-12-19T22:39:19;13.20;94.90
65408;DHT22;52017;51.230;-2.322;2022-12-19T22:43:23;13.20;94.90
65408;DHT22;52017;51.230;-2.322;2022-12-19T22:47:26;13.10;94.90
65408;DHT22;52017;51.230;-2.322;2022-12-19T22:51:20;13.10;94.80
65408;DHT22;52017;51.230;-2.322;2022-12-19T22:55:03;13.10;94.90
65408;DHT22;52017;51.230;-2.322;2022-12-19T22:58:57;13.10;94.90
65408;DHT22;52017;51.230;-2.322;2022-12-19T23:02:47;13.10;94.90
65408;DHT22;52017;51.230;-2.322;2022-12-19T23:06:45;13.00;94.90
65408;DHT22;52017;51.230;-2.322;2022-12-19T23:10:43;13.00;95.00
65408;DHT22;52017;51.230;-2.322;2022-12-19T23:14:34;13.00;94.90
65408;DHT22;52017;51.230;-2.322;2022-12-19T23:18:50;13.00;95.00
65408;DHT22;52017;51.230;-2.322;2022-12-19T23:22:48;13.00;95.00
65408;DHT22;52017;51.230;-2.322;2022-12-19T23:27:15;13.00;94.90
65408;DHT22;52017;51.230;-2.322;2022-12-19T23:31:12;13.00;95.00
65408;DHT22;52017;51.230;-2.322;2022-12-19T23:35:12;13.00;95.00
65408;DHT22;52017;51.230;-2.322;2022-12-19T23:39:02;13.00;95.00
65408;DHT22;52017;51.230;-2.322;2022-12-19T23:43:03;13.00;95.00
65408;DHT22;52017;51.230;-2.322;2022-12-19T23:47:08;13.00;95.00
65408;DHT22;52017;51.230;-2.322;2022-12-19T23:51:14;13.00;95.00
65408;DHT22;52017;51.230;-2.322;2022-12-19T23:55:12;13.00;95.10
65408;DHT22;52017;51.230;-2.322;2022-12-19T23:58:55;13.00;95.10
